sensor_id;sensor_type;location;lat;lon;timestamp;temperature;humidity
42905;DHT22;28550;51.228;4.528;2022-09-12T00:00:09;14.70;92.70
42905;DHT22;28550;51.228;4.528;2022-09-12T00:10:27;14.70;93.70
42905;DHT22;28550;51.228;4.528;2022-09-12T00:12:52;14.60;93.00
42905;DHT22;28550;51.228;4.528;2022-09-12T00:26:07;14.70;94.10
42905;DHT22;28550;51.228;4.528;2022-09-12T00:28:59;14.60;94.10
42905;DHT22;28550;51.228;4.528;2022-09-12T00:31:25;14.60;94.30
42905;DHT22;28550;51.228;4.528;2022-09-12T00:34:11;14.50;93.70
42905;DHT22;28550;51.228;4.528;2022-09-12T00:44:49;14.60;93.70
42905;DHT22;28550;51.228;4.528;2022-09-12T00:53:11;14.50;93.60
42905;DHT22;28550;51.228;4.528;2022-09-12T00:55:13;14.50;93.70
42905;DHT22;28550;51.228;4.528;2022-09-12T00:57:47;14.50;93.50
42905;DHT22;28550;51.228;4.528;2022-09-12T01:00:15;14.40;94.00
42905;DHT22;28550;51.228;4.528;2022-09-12T01:02:42;14.40;94.00
42905;DHT22;28550;51.228;4.528;2022-09-12T01:05:08;14.40;93.90
42905;DHT22;28550;51.228;4.528;2022-09-12T01:10:20;14.40;94.30
42905;DHT22;28550;51.228;4.528;2022-09-12T01:12:46;14.40;94.40
42905;DHT22;28550;51.228;4.528;2022-09-12T01:15:12;14.40;94.50
42905;DHT22;28550;51.228;4.528;2022-09-12T01:17:46;14.40;94.50
42905;DHT22;28550;51.228;4.528;2022-09-12T01:25:37;14.50;94.90
42905;DHT22;28550;51.228;4.528;2022-09-12T01:30:58;14.40;94.30
42905;DHT22;28550;51.228;4.528;2022-09-12T01:33:31;14.30;94.30
42905;DHT22;28550;51.228;4.528;2022-09-12T01:38:45;14.30;95.30
42905;DHT22;28550;51.228;4.528;2022-09-12T01:50:02;14.10;95.90
42905;DHT22;28550;51.228;4.528;2022-09-12T01:52:42;14.20;95.80
42905;DHT22;28550;51.228;4.528;2022-09-12T01:55:17;14.20;95.60
42905;DHT22;28550;51.228;4.528;2022-09-12T01:57:46;14.30;94.20
42905;DHT22;28550;51.228;4.528;2022-09-12T02:00:13;14.30;94.50
42905;DHT22;28550;51.228;4.528;2022-09-12T02:02:44;14.20;94.10
42905;DHT22;28550;51.228;4.528;2022-09-12T02:10:20;14.10;95.60
42905;DHT22;28550;51.228;4.528;2022-09-12T02:12:57;14.10;95.90
42905;DHT22;28550;51.228;4.528;2022-09-12T02:25:45;14.00;97.30
42905;DHT22;28550;51.228;4.528;2022-09-12T02:31:33;14.00;97.00
42905;DHT22;28550;51.228;4.528;2022-09-12T02:39:37;14.00;96.40
42905;DHT22;28550;51.228;4.528;2022-09-12T02:42:03;14.00;96.20
42905;DHT22;28550;51.228;4.528;2022-09-12T02:44:29;14.00;95.80
42905;DHT22;28550;51.228;4.528;2022-09-12T02:47:07;14.00;96.30
42905;DHT22;28550;51.228;4.528;2022-09-12T02:49:42;13.90;96.50
42905;DHT22;28550;51.228;4.528;2022-09-12T03:00:24;14.00;96.70
42905;DHT22;28550;51.228;4.528;2022-09-12T03:08:33;14.00;96.80
42905;DHT22;28550;51.228;4.528;2022-09-12T03:13:51;14.00;96.30
42905;DHT22;28550;51.228;4.528;2022-09-12T03:28:10;14.00;96.80
42905;DHT22;28550;51.228;4.528;2022-09-12T03:30:44;14.00;96.80
42905;DHT22;28550;51.228;4.528;2022-09-12T03:33:35;14.00;97.00
42905;DHT22;28550;51.228;4.528;2022-09-12T03:36:01;13.90;97.10
42905;DHT22;28550;51.228;4.528;2022-09-12T03:38:27;13.90;96.30
42905;DHT22;28550;51.228;4.528;2022-09-12T03:40:59;13.90;96.00
42905;DHT22;28550;51.228;4.528;2022-09-12T03:43:25;13.90;97.20
42905;DHT22;28550;51.228;4.528;2022-09-12T03:45:50;13.80;96.30
42905;DHT22;28550;51.228;4.528;2022-09-12T03:48:17;13.80;96.90
42905;DHT22;28550;51.228;4.528;2022-09-12T03:50:46;13.80;95.70
42905;DHT22;28550;51.228;4.528;2022-09-12T03:53:12;13.70;97.90
42905;DHT22;28550;51.228;4.528;2022-09-12T03:55:37;13.70;97.40
42905;DHT22;28550;51.228;4.528;2022-09-12T03:58:03;13.70;97.80
42905;DHT22;28550;51.228;4.528;2022-09-12T04:00:37;13.70;97.80
42905;DHT22;28550;51.228;4.528;2022-09-12T04:13:44;13.80;97.70
42905;DHT22;28550;51.228;4.528;2022-09-12T04:16:21;13.90;97.40
42905;DHT22;28550;51.228;4.528;2022-09-12T04:18:59;13.80;97.70
42905;DHT22;28550;51.228;4.528;2022-09-12T04:21:24;13.80;97.80
42905;DHT22;28550;51.228;4.528;2022-09-12T04:26:21;13.70;98.00
42905;DHT22;28550;51.228;4.528;2022-09-12T04:28:51;13.70;97.40
42905;DHT22;28550;51.228;4.528;2022-09-12T04:31:23;13.70;98.00
42905;DHT22;28550;51.228;4.528;2022-09-12T04:33:55;13.70;97.50
42905;DHT22;28550;51.228;4.528;2022-09-12T04:45:37;13.80;96.40
42905;DHT22;28550;51.228;4.528;2022-09-12T04:48:03;13.80;96.20
42905;DHT22;28550;51.228;4.528;2022-09-12T04:50:29;13.70;95.10
42905;DHT22;28550;51.228;4.528;2022-09-12T04:53:02;13.80;92.90
42905;DHT22;28550;51.228;4.528;2022-09-12T04:55:41;13.70;96.00
42905;DHT22;28550;51.228;4.528;2022-09-12T04:58:06;13.70;96.10
42905;DHT22;28550;51.228;4.528;2022-09-12T05:00:32;13.70;95.40
42905;DHT22;28550;51.228;4.528;2022-09-12T05:03:16;13.70;95.10
42905;DHT22;28550;51.228;4.528;2022-09-12T05:08:22;13.60;95.60
42905;DHT22;28550;51.228;4.528;2022-09-12T05:10:50;13.50;95.60
42905;DHT22;28550;51.228;4.528;2022-09-12T05:13:16;13.50;95.10
42905;DHT22;28550;51.228;4.528;2022-09-12T05:15:42;13.50;94.50
42905;DHT22;28550;51.228;4.528;2022-09-12T05:18:15;13.50;94.60
42905;DHT22;28550;51.228;4.528;2022-09-12T05:20:52;13.50;95.30
42905;DHT22;28550;51.228;4.528;2022-09-12T05:23:17;13.50;95.50
42905;DHT22;28550;51.228;4.528;2022-09-12T05:26:02;13.40;94.50
42905;DHT22;28550;51.228;4.528;2022-09-12T05:34:08;13.30;95.70
42905;DHT22;28550;51.228;4.528;2022-09-12T05:36:34;13.40;95.30
42905;DHT22;28550;51.228;4.528;2022-09-12T05:39:01;13.40;95.70
42905;DHT22;28550;51.228;4.528;2022-09-12T05:41:28;13.30;95.90
42905;DHT22;28550;51.228;4.528;2022-09-12T05:43:55;13.40;96.10
42905;DHT22;28550;51.228;4.528;2022-09-12T05:46:22;13.40;95.60
42905;DHT22;28550;51.228;4.528;2022-09-12T05:48:49;13.40;95.60
42905;DHT22;28550;51.228;4.528;2022-09-12T05:51:16;13.50;94.60
42905;DHT22;28550;51.228;4.528;2022-09-12T05:53:46;13.40;95.60
42905;DHT22;28550;51.228;4.528;2022-09-12T05:56:22;13.40;95.90
42905;DHT22;28550;51.228;4.528;2022-09-12T05:58:52;13.30;96.80
42905;DHT22;28550;51.228;4.528;2022-09-12T06:01:18;13.30;97.10
42905;DHT22;28550;51.228;4.528;2022-09-12T06:06:46;13.40;96.60
42905;DHT22;28550;51.228;4.528;2022-09-12T06:09:20;13.40;97.70
42905;DHT22;28550;51.228;4.528;2022-09-12T06:11:45;13.60;97.90
42905;DHT22;28550;51.228;4.528;2022-09-12T06:14:12;13.60;96.20
42905;DHT22;28550;51.228;4.528;2022-09-12T06:16:40;13.80;97.80
42905;DHT22;28550;51.228;4.528;2022-09-12T06:19:10;14.10;97.50
42905;DHT22;28550;51.228;4.528;2022-09-12T06:21:37;14.10;97.70
42905;DHT22;28550;51.228;4.528;2022-09-12T06:24:04;14.30;97.10
42905;DHT22;28550;51.228;4.528;2022-09-12T06:26:31;14.30;97.00
42905;DHT22;28550;51.228;4.528;2022-09-12T06:28:57;14.50;96.70
42905;DHT22;28550;51.228;4.528;2022-09-12T06:31:24;14.50;96.40
42905;DHT22;28550;51.228;4.528;2022-09-12T06:33:54;14.40;96.10
42905;DHT22;28550;51.228;4.528;2022-09-12T06:36:24;14.40;96.50
42905;DHT22;28550;51.228;4.528;2022-09-12T06:38:54;14.30;96.90
42905;DHT22;28550;51.228;4.528;2022-09-12T06:41:21;14.30;97.50
42905;DHT22;28550;51.228;4.528;2022-09-12T06:43:48;14.50;97.90
42905;DHT22;28550;51.228;4.528;2022-09-12T06:48:43;15.10;98.30
42905;DHT22;28550;51.228;4.528;2022-09-12T06:51:09;15.60;97.20
42905;DHT22;28550;51.228;4.528;2022-09-12T06:53:36;16.40;98.30
42905;DHT22;28550;51.228;4.528;2022-09-12T06:56:03;17.40;95.20
42905;DHT22;28550;51.228;4.528;2022-09-12T06:58:35;18.30;80.50
42905;DHT22;28550;51.228;4.528;2022-09-12T07:09:06;18.60;22.10
42905;DHT22;28550;51.228;4.528;2022-09-12T07:11:33;18.50;22.50
42905;DHT22;28550;51.228;4.528;2022-09-12T07:14:09;18.80;17.60
42905;DHT22;28550;51.228;4.528;2022-09-12T07:16:39;19.00;1.00
42905;DHT22;28550;51.228;4.528;2022-09-12T07:19:25;19.20;1.00
42905;DHT22;28550;51.228;4.528;2022-09-12T07:21:54;19.40;1.00
42905;DHT22;28550;51.228;4.528;2022-09-12T07:26:57;21.10;99.90
42905;DHT22;28550;51.228;4.528;2022-09-12T07:29:22;21.20;99.90
42905;DHT22;28550;51.228;4.528;2022-09-12T07:31:48;21.70;1.00
42905;DHT22;28550;51.228;4.528;2022-09-12T07:34:14;22.60;99.90
42905;DHT22;28550;51.228;4.528;2022-09-12T07:42:51;23.30;33.50
42905;DHT22;28550;51.228;4.528;2022-09-12T07:45:16;23.70;68.10
42905;DHT22;28550;51.228;4.528;2022-09-12T07:47:43;24.40;1.00
42905;DHT22;28550;51.228;4.528;2022-09-12T07:50:09;24.10;1.00
42905;DHT22;28550;51.228;4.528;2022-09-12T07:52:43;25.10;99.90
42905;DHT22;28550;51.228;4.528;2022-09-12T07:55:17;25.20;98.70
42905;DHT22;28550;51.228;4.528;2022-09-12T07:57:43;25.50;1.00
42905;DHT22;28550;51.228;4.528;2022-09-12T08:00:09;25.00;1.00
42905;DHT22;28550;51.228;4.528;2022-09-12T08:05:17;25.70;99.90
42905;DHT22;28550;51.228;4.528;2022-09-12T08:07:43;25.30;99.90
42905;DHT22;28550;51.228;4.528;2022-09-12T08:10:08;25.70;99.90
42905;DHT22;28550;51.228;4.528;2022-09-12T08:12:34;26.20;99.90
42905;DHT22;28550;51.228;4.528;2022-09-12T08:15:15;26.10;1.00
42905;DHT22;28550;51.228;4.528;2022-09-12T08:17:41;26.30;1.00
42905;DHT22;28550;51.228;4.528;2022-09-12T08:20:07;27.10;99.90
42905;DHT22;28550;51.228;4.528;2022-09-12T08:22:33;27.40;25.70
42905;DHT22;28550;51.228;4.528;2022-09-12T08:27:34;27.10;10.40
42905;DHT22;28550;51.228;4.528;2022-09-12T08:30:01;27.90;1.00
42905;DHT22;28550;51.228;4.528;2022-09-12T08:32:26;28.30;1.00
42905;DHT22;28550;51.228;4.528;2022-09-12T08:40:03;29.40;99.90
42905;DHT22;28550;51.228;4.528;2022-09-12T08:42:42;29.70;99.90
42905;DHT22;28550;51.228;4.528;2022-09-12T08:45:17;29.60;99.90
42905;DHT22;28550;51.228;4.528;2022-09-12T08:47:44;30.30;99.90
42905;DHT22;28550;51.228;4.528;2022-09-12T08:50:13;30.60;99.90
42905;DHT22;28550;51.228;4.528;2022-09-12T08:53:01;30.80;99.90
42905;DHT22;28550;51.228;4.528;2022-09-12T08:55:37;31.20;99.90
42905;DHT22;28550;51.228;4.528;2022-09-12T08:58:14;31.10;99.90
42905;DHT22;28550;51.228;4.528;2022-09-12T09:00:58;31.30;99.90
42905;DHT22;28550;51.228;4.528;2022-09-12T09:06:07;32.60;99.90
42905;DHT22;28550;51.228;4.528;2022-09-12T09:08:43;30.90;99.90
42905;DHT22;28550;51.228;4.528;2022-09-12T09:16:38;31.10;99.90
42905;DHT22;28550;51.228;4.528;2022-09-12T09:27:32;32.20;99.90
42905;DHT22;28550;51.228;4.528;2022-09-12T09:29:57;32.00;99.90
42905;DHT22;28550;51.228;4.528;2022-09-12T09:32:30;32.90;99.90
42905;DHT22;28550;51.228;4.528;2022-09-12T09:38:04;34.60;99.90
42905;DHT22;28550;51.228;4.528;2022-09-12T09:46:22;31.80;99.90
42905;DHT22;28550;51.228;4.528;2022-09-12T09:48:48;32.70;99.90
42905;DHT22;28550;51.228;4.528;2022-09-12T09:59:19;34.90;99.90
42905;DHT22;28550;51.228;4.528;2022-09-12T10:04:32;34.00;99.90
42905;DHT22;28550;51.228;4.528;2022-09-12T10:07:26;33.50;99.90
42905;DHT22;28550;51.228;4.528;2022-09-12T10:10:03;33.40;99.90
42905;DHT22;28550;51.228;4.528;2022-09-12T10:12:31;34.70;99.90
42905;DHT22;28550;51.228;4.528;2022-09-12T10:14:58;34.00;99.90
42905;DHT22;28550;51.228;4.528;2022-09-12T10:17:30;33.40;99.90
42905;DHT22;28550;51.228;4.528;2022-09-12T10:19:56;34.40;99.90
42905;DHT22;28550;51.228;4.528;2022-09-12T10:22:23;34.80;99.90
42905;DHT22;28550;51.228;4.528;2022-09-12T10:28:03;35.80;99.90
42905;DHT22;28550;51.228;4.528;2022-09-12T10:33:33;34.80;99.90
42905;DHT22;28550;51.228;4.528;2022-09-12T10:36:45;34.00;99.90
42905;DHT22;28550;51.228;4.528;2022-09-12T10:39:15;34.60;99.90
42905;DHT22;28550;51.228;4.528;2022-09-12T10:44:33;36.10;99.90
42905;DHT22;28550;51.228;4.528;2022-09-12T10:47:18;35.60;99.90
42905;DHT22;28550;51.228;4.528;2022-09-12T10:49:43;36.30;99.90
42905;DHT22;28550;51.228;4.528;2022-09-12T10:52:19;36.50;99.90
42905;DHT22;28550;51.228;4.528;2022-09-12T10:54:45;36.20;99.90
42905;DHT22;28550;51.228;4.528;2022-09-12T10:57:30;35.00;99.90
42905;DHT22;28550;51.228;4.528;2022-09-12T11:00:10;34.70;99.90
42905;DHT22;28550;51.228;4.528;2022-09-12T11:05:20;35.60;99.90
42905;DHT22;28550;51.228;4.528;2022-09-12T11:07:50;36.40;99.90
42905;DHT22;28550;51.228;4.528;2022-09-12T11:10:28;35.60;99.90
42905;DHT22;28550;51.228;4.528;2022-09-12T11:12:58;34.60;99.90
42905;DHT22;28550;51.228;4.528;2022-09-12T11:18:02;34.50;99.90
42905;DHT22;28550;51.228;4.528;2022-09-12T11:26:36;34.50;99.90
42905;DHT22;28550;51.228;4.528;2022-09-12T11:28:35;35.50;99.90
42905;DHT22;28550;51.228;4.528;2022-09-12T11:33:46;37.20;99.90
42905;DHT22;28550;51.228;4.528;2022-09-12T11:36:26;38.30;99.90
42905;DHT22;28550;51.228;4.528;2022-09-12T11:43:48;36.20;99.90
42905;DHT22;28550;51.228;4.528;2022-09-12T11:46:28;36.00;99.90
42905;DHT22;28550;51.228;4.528;2022-09-12T11:49:10;35.90;99.90
42905;DHT22;28550;51.228;4.528;2022-09-12T11:56:45;36.20;99.90
42905;DHT22;28550;51.228;4.528;2022-09-12T11:59:18;36.10;99.90
42905;DHT22;28550;51.228;4.528;2022-09-12T12:01:47;36.10;99.90
42905;DHT22;28550;51.228;4.528;2022-09-12T12:04:16;35.00;99.90
42905;DHT22;28550;51.228;4.528;2022-09-12T12:07:16;33.70;99.90
42905;DHT22;28550;51.228;4.528;2022-09-12T12:09:45;33.70;99.90
42905;DHT22;28550;51.228;4.528;2022-09-12T12:12:14;35.10;99.90
42905;DHT22;28550;51.228;4.528;2022-09-12T12:14:45;35.30;99.90
42905;DHT22;28550;51.228;4.528;2022-09-12T12:17:15;35.90;99.90
42905;DHT22;28550;51.228;4.528;2022-09-12T12:19:41;36.70;99.90
42905;DHT22;28550;51.228;4.528;2022-09-12T12:22:17;37.40;99.90
42905;DHT22;28550;51.228;4.528;2022-09-12T12:35:41;34.70;99.90
42905;DHT22;28550;51.228;4.528;2022-09-12T12:40:52;36.30;99.90
42905;DHT22;28550;51.228;4.528;2022-09-12T12:43:28;37.30;99.90
42905;DHT22;28550;51.228;4.528;2022-09-12T12:46:02;37.70;99.90
42905;DHT22;28550;51.228;4.528;2022-09-12T12:48:28;39.00;99.90
42905;DHT22;28550;51.228;4.528;2022-09-12T12:51:13;38.80;99.90
42905;DHT22;28550;51.228;4.528;2022-09-12T12:53:40;39.20;99.90
42905;DHT22;28550;51.228;4.528;2022-09-12T12:56:19;39.70;99.90
42905;DHT22;28550;51.228;4.528;2022-09-12T12:58:49;39.50;99.90
42905;DHT22;28550;51.228;4.528;2022-09-12T13:01:24;38.80;99.90
42905;DHT22;28550;51.228;4.528;2022-09-12T13:04:10;39.00;99.90
42905;DHT22;28550;51.228;4.528;2022-09-12T13:11:38;40.70;99.90
42905;DHT22;28550;51.228;4.528;2022-09-12T13:17:25;38.30;99.90
42905;DHT22;28550;51.228;4.528;2022-09-12T13:22:40;36.30;99.90
42905;DHT22;28550;51.228;4.528;2022-09-12T13:25:19;36.50;99.90
42905;DHT22;28550;51.228;4.528;2022-09-12T13:27:58;35.30;99.90
42905;DHT22;28550;51.228;4.528;2022-09-12T13:30:32;34.30;99.90
42905;DHT22;28550;51.228;4.528;2022-09-12T13:33:01;35.10;99.90
42905;DHT22;28550;51.228;4.528;2022-09-12T13:35:39;35.50;99.90
42905;DHT22;28550;51.228;4.528;2022-09-12T13:38:17;36.70;99.90
42905;DHT22;28550;51.228;4.528;2022-09-12T13:41:11;36.20;99.90
42905;DHT22;28550;51.228;4.528;2022-09-12T13:43:40;34.30;99.90
42905;DHT22;28550;51.228;4.528;2022-09-12T13:46:06;32.90;99.90
42905;DHT22;28550;51.228;4.528;2022-09-12T13:48:33;33.90;99.90
42905;DHT22;28550;51.228;4.528;2022-09-12T13:50:59;34.30;99.90
42905;DHT22;28550;51.228;4.528;2022-09-12T13:53:27;35.00;99.90
42905;DHT22;28550;51.228;4.528;2022-09-12T13:56:01;35.60;99.90
42905;DHT22;28550;51.228;4.528;2022-09-12T13:58:31;36.50;99.90
42905;DHT22;28550;51.228;4.528;2022-09-12T14:06:42;38.30;99.90
42905;DHT22;28550;51.228;4.528;2022-09-12T14:09:14;36.00;99.90
42905;DHT22;28550;51.228;4.528;2022-09-12T14:11:40;36.30;99.90
42905;DHT22;28550;51.228;4.528;2022-09-12T14:14:06;36.00;99.90
42905;DHT22;28550;51.228;4.528;2022-09-12T14:16:43;36.60;99.90
42905;DHT22;28550;51.228;4.528;2022-09-12T14:19:09;37.10;99.90
42905;DHT22;28550;51.228;4.528;2022-09-12T14:21:38;36.70;99.90
42905;DHT22;28550;51.228;4.528;2022-09-12T14:24:05;35.70;98.50
42905;DHT22;28550;51.228;4.528;2022-09-12T14:26:34;36.50;99.90
42905;DHT22;28550;51.228;4.528;2022-09-12T14:29:01;36.70;99.90
42905;DHT22;28550;51.228;4.528;2022-09-12T14:31:30;36.10;99.90
42905;DHT22;28550;51.228;4.528;2022-09-12T14:34:15;36.20;99.20
42905;DHT22;28550;51.228;4.528;2022-09-12T14:39:33;36.00;99.90
42905;DHT22;28550;51.228;4.528;2022-09-12T14:45:11;36.50;99.90
42905;DHT22;28550;51.228;4.528;2022-09-12T14:47:46;36.50;98.50
42905;DHT22;28550;51.228;4.528;2022-09-12T14:50:14;36.00;99.90
42905;DHT22;28550;51.228;4.528;2022-09-12T14:52:40;35.60;99.00
42905;DHT22;28550;51.228;4.528;2022-09-12T14:57:45;35.10;99.90
42905;DHT22;28550;51.228;4.528;2022-09-12T15:00:15;35.40;94.50
42905;DHT22;28550;51.228;4.528;2022-09-12T15:02:44;35.80;97.50
42905;DHT22;28550;51.228;4.528;2022-09-12T15:07:36;34.70;95.20
42905;DHT22;28550;51.228;4.528;2022-09-12T15:10:08;34.60;99.90
42905;DHT22;28550;51.228;4.528;2022-09-12T15:12:39;34.30;99.90
42905;DHT22;28550;51.228;4.528;2022-09-12T15:15:11;34.70;99.90
42905;DHT22;28550;51.228;4.528;2022-09-12T15:17:37;35.10;99.90
42905;DHT22;28550;51.228;4.528;2022-09-12T15:20:07;35.60;77.20
42905;DHT22;28550;51.228;4.528;2022-09-12T15:22:36;35.90;99.90
42905;DHT22;28550;51.228;4.528;2022-09-12T15:25:17;36.30;99.50
42905;DHT22;28550;51.228;4.528;2022-09-12T15:28:14;36.80;89.70
42905;DHT22;28550;51.228;4.528;2022-09-12T15:30:43;37.10;99.90
42905;DHT22;28550;51.228;4.528;2022-09-12T15:33:09;37.50;97.60
42905;DHT22;28550;51.228;4.528;2022-09-12T15:35:35;36.40;99.90
42905;DHT22;28550;51.228;4.528;2022-09-12T15:38:01;36.60;97.10
42905;DHT22;28550;51.228;4.528;2022-09-12T15:40:27;36.80;84.50
42905;DHT22;28550;51.228;4.528;2022-09-12T15:45:29;34.90;99.90
42905;DHT22;28550;51.228;4.528;2022-09-12T15:47:55;33.50;98.20
42905;DHT22;28550;51.228;4.528;2022-09-12T15:50:21;32.60;99.90
42905;DHT22;28550;51.228;4.528;2022-09-12T15:52:56;31.90;99.90
42905;DHT22;28550;51.228;4.528;2022-09-12T15:55:27;31.50;99.90
42905;DHT22;28550;51.228;4.528;2022-09-12T15:57:53;30.60;99.90
42905;DHT22;28550;51.228;4.528;2022-09-12T16:00:20;29.70;99.60
42905;DHT22;28550;51.228;4.528;2022-09-12T16:02:46;29.00;99.90
42905;DHT22;28550;51.228;4.528;2022-09-12T16:05:14;28.80;99.90
42905;DHT22;28550;51.228;4.528;2022-09-12T16:07:55;28.70;99.90
42905;DHT22;28550;51.228;4.528;2022-09-12T16:10:24;28.50;99.90
42905;DHT22;28550;51.228;4.528;2022-09-12T16:12:50;28.10;99.90
42905;DHT22;28550;51.228;4.528;2022-09-12T16:15:17;28.00;99.90
42905;DHT22;28550;51.228;4.528;2022-09-12T16:17:43;28.30;99.90
42905;DHT22;28550;51.228;4.528;2022-09-12T16:20:09;28.50;99.90
42905;DHT22;28550;51.228;4.528;2022-09-12T16:22:38;28.40;99.90
42905;DHT22;28550;51.228;4.528;2022-09-12T16:25:04;28.20;99.90
42905;DHT22;28550;51.228;4.528;2022-09-12T16:27:39;27.80;99.90
42905;DHT22;28550;51.228;4.528;2022-09-12T16:30:10;27.50;99.90
42905;DHT22;28550;51.228;4.528;2022-09-12T16:32:38;27.40;99.90
42905;DHT22;28550;51.228;4.528;2022-09-12T16:35:04;27.20;99.90
42905;DHT22;28550;51.228;4.528;2022-09-12T16:37:30;27.10;99.90
42905;DHT22;28550;51.228;4.528;2022-09-12T16:39:55;27.40;99.90
42905;DHT22;28550;51.228;4.528;2022-09-12T16:42:24;27.80;99.90
42905;DHT22;28550;51.228;4.528;2022-09-12T16:47:40;28.00;99.90
42905;DHT22;28550;51.228;4.528;2022-09-12T16:50:06;28.00;99.90
42905;DHT22;28550;51.228;4.528;2022-09-12T16:52:34;28.00;99.90
42905;DHT22;28550;51.228;4.528;2022-09-12T16:55:03;27.90;99.90
42905;DHT22;28550;51.228;4.528;2022-09-12T17:00:19;28.40;99.90
42905;DHT22;28550;51.228;4.528;2022-09-12T17:02:45;28.40;99.90
42905;DHT22;28550;51.228;4.528;2022-09-12T17:05:12;28.30;99.90
42905;DHT22;28550;51.228;4.528;2022-09-12T17:07:41;28.30;99.90
42905;DHT22;28550;51.228;4.528;2022-09-12T17:10:07;28.40;99.90
42905;DHT22;28550;51.228;4.528;2022-09-12T17:12:33;28.70;99.90
42905;DHT22;28550;51.228;4.528;2022-09-12T17:15:02;29.10;99.90
42905;DHT22;28550;51.228;4.528;2022-09-12T17:20:12;28.90;99.90
42905;DHT22;28550;51.228;4.528;2022-09-12T17:22:41;28.10;99.90
42905;DHT22;28550;51.228;4.528;2022-09-12T17:25:06;27.70;99.90
42905;DHT22;28550;51.228;4.528;2022-09-12T17:27:32;27.30;99.90
42905;DHT22;28550;51.228;4.528;2022-09-12T17:29:58;26.80;99.90
42905;DHT22;28550;51.228;4.528;2022-09-12T17:32:24;26.40;99.90
42905;DHT22;28550;51.228;4.528;2022-09-12T17:34:49;26.10;99.90
42905;DHT22;28550;51.228;4.528;2022-09-12T17:37:16;25.80;99.90
42905;DHT22;28550;51.228;4.528;2022-09-12T17:39:41;25.40;99.90
42905;DHT22;28550;51.228;4.528;2022-09-12T17:42:07;25.20;99.90
42905;DHT22;28550;51.228;4.528;2022-09-12T17:44:33;24.90;99.90
42905;DHT22;28550;51.228;4.528;2022-09-12T17:47:00;24.60;99.90
42905;DHT22;28550;51.228;4.528;2022-09-12T17:49:26;24.30;99.90
42905;DHT22;28550;51.228;4.528;2022-09-12T17:51:52;24.10;99.90
42905;DHT22;28550;51.228;4.528;2022-09-12T17:54:20;24.00;99.90
42905;DHT22;28550;51.228;4.528;2022-09-12T17:56:49;23.90;1.00
42905;DHT22;28550;51.228;4.528;2022-09-12T17:59:21;23.70;99.90
42905;DHT22;28550;51.228;4.528;2022-09-12T18:01:50;23.40;37.20
42905;DHT22;28550;51.228;4.528;2022-09-12T18:04:35;23.20;1.00
42905;DHT22;28550;51.228;4.528;2022-09-12T18:07:00;23.00;99.90
42905;DHT22;28550;51.228;4.528;2022-09-12T18:09:26;22.80;1.00
42905;DHT22;28550;51.228;4.528;2022-09-12T18:11:53;22.60;1.00
42905;DHT22;28550;51.228;4.528;2022-09-12T18:14:19;22.50;1.00
42905;DHT22;28550;51.228;4.528;2022-09-12T18:16:45;22.30;99.90
42905;DHT22;28550;51.228;4.528;2022-09-12T18:19:11;22.10;1.00
42905;DHT22;28550;51.228;4.528;2022-09-12T18:21:43;21.90;98.40
42905;DHT22;28550;51.228;4.528;2022-09-12T18:24:09;21.90;1.00
42905;DHT22;28550;51.228;4.528;2022-09-12T18:26:35;21.70;99.90
42905;DHT22;28550;51.228;4.528;2022-09-12T18:29:01;21.70;1.00
42905;DHT22;28550;51.228;4.528;2022-09-12T18:31:27;21.40;1.00
42905;DHT22;28550;51.228;4.528;2022-09-12T18:33:54;21.30;99.90
42905;DHT22;28550;51.228;4.528;2022-09-12T18:36:26;21.20;1.00
42905;DHT22;28550;51.228;4.528;2022-09-12T18:38:52;21.10;1.00
42905;DHT22;28550;51.228;4.528;2022-09-12T18:41:20;21.00;1.00
42905;DHT22;28550;51.228;4.528;2022-09-12T18:43:47;20.90;1.00
42905;DHT22;28550;51.228;4.528;2022-09-12T18:46:17;20.80;1.00
42905;DHT22;28550;51.228;4.528;2022-09-12T18:48:43;20.80;1.00
42905;DHT22;28550;51.228;4.528;2022-09-12T18:51:22;20.70;1.00
42905;DHT22;28550;51.228;4.528;2022-09-12T18:53:51;20.60;1.00
42905;DHT22;28550;51.228;4.528;2022-09-12T18:56:17;20.60;1.00
42905;DHT22;28550;51.228;4.528;2022-09-12T18:58:43;20.60;1.00
42905;DHT22;28550;51.228;4.528;2022-09-12T19:01:16;20.60;1.00
42905;DHT22;28550;51.228;4.528;2022-09-12T19:03:54;20.50;1.00
42905;DHT22;28550;51.228;4.528;2022-09-12T19:06:24;20.40;1.00
42905;DHT22;28550;51.228;4.528;2022-09-12T19:08:50;20.30;1.00
42905;DHT22;28550;51.228;4.528;2022-09-12T19:11:17;20.20;1.00
42905;DHT22;28550;51.228;4.528;2022-09-12T19:16:12;20.00;1.00
42905;DHT22;28550;51.228;4.528;2022-09-12T19:18:38;20.10;1.00
42905;DHT22;28550;51.228;4.528;2022-09-12T19:21:07;20.00;1.00
42905;DHT22;28550;51.228;4.528;2022-09-12T19:23:34;20.00;1.00
42905;DHT22;28550;51.228;4.528;2022-09-12T19:26:04;19.90;1.00
42905;DHT22;28550;51.228;4.528;2022-09-12T19:28:30;19.90;1.00
42905;DHT22;28550;51.228;4.528;2022-09-12T19:30:58;19.90;1.00
42905;DHT22;28550;51.228;4.528;2022-09-12T19:33:26;19.80;1.00
42905;DHT22;28550;51.228;4.528;2022-09-12T19:39:15;19.80;5.50
42905;DHT22;28550;51.228;4.528;2022-09-12T19:41:41;19.80;2.40
42905;DHT22;28550;51.228;4.528;2022-09-12T19:44:07;19.60;7.10
42905;DHT22;28550;51.228;4.528;2022-09-12T19:46:32;19.50;11.00
42905;DHT22;28550;51.228;4.528;2022-09-12T19:48:59;19.40;13.00
42905;DHT22;28550;51.228;4.528;2022-09-12T19:51:25;19.40;16.40
42905;DHT22;28550;51.228;4.528;2022-09-12T19:53:53;19.30;13.40
42905;DHT22;28550;51.228;4.528;2022-09-12T19:56:19;19.30;22.80
42905;DHT22;28550;51.228;4.528;2022-09-12T19:58:45;19.10;26.20
42905;DHT22;28550;51.228;4.528;2022-09-12T20:01:15;19.20;29.30
42905;DHT22;28550;51.228;4.528;2022-09-12T20:03:41;19.20;31.60
42905;DHT22;28550;51.228;4.528;2022-09-12T20:06:09;19.10;32.60
42905;DHT22;28550;51.228;4.528;2022-09-12T20:08:36;19.10;35.80
42905;DHT22;28550;51.228;4.528;2022-09-12T20:11:07;19.00;39.60
42905;DHT22;28550;51.228;4.528;2022-09-12T20:13:33;18.90;40.90
42905;DHT22;28550;51.228;4.528;2022-09-12T20:18:39;18.90;45.40
42905;DHT22;28550;51.228;4.528;2022-09-12T20:21:15;18.70;45.90
42905;DHT22;28550;51.228;4.528;2022-09-12T20:23:42;18.70;49.50
42905;DHT22;28550;51.228;4.528;2022-09-12T20:26:08;18.70;51.80
42905;DHT22;28550;51.228;4.528;2022-09-12T20:28:37;18.60;51.50
42905;DHT22;28550;51.228;4.528;2022-09-12T20:31:04;18.70;51.70
42905;DHT22;28550;51.228;4.528;2022-09-12T20:33:30;18.60;52.80
42905;DHT22;28550;51.228;4.528;2022-09-12T20:35:59;18.50;54.40
42905;DHT22;28550;51.228;4.528;2022-09-12T20:38:25;18.50;57.10
42905;DHT22;28550;51.228;4.528;2022-09-12T20:40:51;18.50;54.50
42905;DHT22;28550;51.228;4.528;2022-09-12T20:43:16;18.50;54.20
42905;DHT22;28550;51.228;4.528;2022-09-12T20:45:42;18.50;54.70
42905;DHT22;28550;51.228;4.528;2022-09-12T20:48:08;18.40;54.40